createdAt,value
2022-09-14T00:00:40.296Z,0.00
2022-09-14T00:01:40.245Z,0.00
2022-09-14T00:02:40.090Z,0.00
2022-09-14T00:03:40.366Z,0.00
2022-09-14T00:04:43.036Z,0.00
2022-09-14T00:05:39.976Z,0.00
2022-09-14T00:06:55.469Z,0.00
2022-09-14T00:07:43.249Z,0.00
2022-09-14T00:09:01.028Z,0.00
2022-09-14T00:09:43.196Z,0.00
2022-09-14T00:10:41.208Z,0.00
2022-09-14T00:11:55.447Z,0.00
2022-09-14T00:12:41.197Z,0.00
2022-09-14T00:13:39.933Z,0.00
2022-09-14T00:14:39.913Z,0.00
2022-09-14T00:15:40.123Z,0.00
2022-09-14T00:16:40.174Z,0.00
2022-09-14T00:17:39.871Z,0.00
2022-09-14T00:18:39.861Z,0.00
2022-09-14T00:19:42.879Z,0.00
2022-09-14T00:20:39.863Z,0.00
2022-09-14T00:21:41.085Z,0.00
2022-09-14T00:22:40.848Z,0.00
2022-09-14T00:23:40.009Z,0.00
2022-09-14T00:24:40.053Z,0.00
2022-09-14T00:25:40.028Z,0.00
2022-09-14T00:26:40.007Z,0.00
2022-09-14T00:27:40.781Z,0.00
2022-09-14T00:28:47.247Z,0.00
2022-09-14T00:29:39.978Z,0.00
2022-09-14T00:30:39.982Z,0.00
2022-09-14T00:31:39.781Z,0.00
2022-09-14T00:33:00.726Z,0.00
2022-09-14T00:33:39.719Z,0.00
2022-09-14T00:34:39.708Z,0.00
2022-09-14T00:35:39.710Z,0.00
2022-09-14T00:36:39.903Z,0.00
2022-09-14T00:37:39.742Z,0.00
2022-09-14T00:38:39.644Z,0.00
2022-09-14T00:39:42.919Z,0.00
2022-09-14T00:40:39.616Z,0.00
2022-09-14T00:41:39.861Z,0.00
2022-09-14T00:42:47.077Z,0.00
2022-09-14T00:43:39.678Z,0.00
2022-09-14T00:44:39.815Z,0.00
2022-09-14T00:45:39.637Z,0.00
2022-09-14T00:46:40.798Z,0.00
2022-09-14T00:47:40.569Z,0.00
2022-09-14T00:48:39.557Z,0.00
2022-09-14T00:49:39.555Z,0.00
2022-09-14T00:50:39.566Z,0.00
2022-09-14T00:51:42.828Z,0.00
2022-09-14T00:52:40.559Z,0.00
2022-09-14T00:53:39.491Z,0.00
2022-09-14T00:54:39.508Z,0.00
2022-09-14T00:55:42.730Z,0.00
2022-09-14T00:56:39.444Z,0.00
2022-09-14T00:57:40.470Z,0.00
2022-09-14T00:58:40.492Z,0.00
2022-09-14T00:59:39.454Z,0.00
2022-09-14T01:00:39.461Z,0.00
2022-09-14T01:01:39.764Z,0.00
2022-09-14T01:02:39.447Z,0.00
2022-09-14T01:03:39.628Z,0.00
2022-09-14T01:04:46.729Z,0.00
2022-09-14T01:05:39.625Z,0.00
2022-09-14T01:06:40.359Z,0.00
2022-09-14T01:07:39.386Z,0.00
2022-09-14T01:08:39.406Z,0.00
2022-09-14T01:09:39.400Z,0.00
2022-09-14T01:10:39.593Z,0.00
2022-09-14T01:11:40.351Z,0.00
2022-09-14T01:12:40.309Z,0.00
2022-09-14T01:13:39.521Z,0.00
2022-09-14T01:14:39.532Z,0.00
2022-09-14T01:15:39.285Z,0.00
2022-09-14T01:16:42.561Z,0.00
2022-09-14T01:17:40.514Z,0.00
2022-09-14T01:18:39.475Z,0.00
2022-09-14T01:19:39.254Z,0.00
2022-09-14T01:20:39.224Z,0.00
2022-09-14T01:21:39.211Z,0.00
2022-09-14T01:22:42.236Z,0.00
2022-09-14T01:23:40.212Z,0.00
2022-09-14T01:24:39.191Z,0.00
2022-09-14T01:25:40.245Z,0.00
2022-09-14T01:26:39.349Z,0.00
2022-09-14T01:27:39.395Z,0.00
2022-09-14T01:28:40.307Z,0.00
2022-09-14T01:30:00.211Z,0.00
2022-09-14T01:30:46.304Z,0.00
2022-09-14T01:31:39.468Z,0.00
2022-09-14T01:32:39.531Z,0.00
2022-09-14T01:33:40.155Z,0.00
2022-09-14T01:34:39.161Z,0.00
2022-09-14T01:35:39.317Z,0.00
2022-09-14T01:36:39.060Z,0.00
2022-09-14T01:37:39.294Z,0.00
2022-09-14T01:38:39.318Z,0.00
2022-09-14T01:39:39.276Z,0.00
2022-09-14T01:40:39.001Z,0.00
2022-09-14T01:41:40.244Z,0.00
2022-09-14T01:42:39.261Z,0.00
2022-09-14T01:43:40.038Z,0.00
2022-09-14T01:44:40.248Z,0.00
2022-09-14T01:45:38.993Z,0.00
2022-09-14T01:46:39.949Z,0.00
2022-09-14T01:47:39.155Z,0.00
2022-09-14T01:48:39.162Z,0.00
2022-09-14T01:49:39.910Z,0.00
2022-09-14T01:50:38.907Z,0.00
2022-09-14T01:51:39.869Z,0.00
2022-09-14T01:52:38.900Z,0.00
2022-09-14T01:53:39.075Z,0.00
2022-09-14T01:54:38.843Z,0.00
2022-09-14T01:55:45.919Z,0.00
2022-09-14T01:56:38.849Z,0.00
2022-09-14T01:57:39.098Z,0.00
2022-09-14T01:58:46.125Z,0.00
2022-09-14T01:59:39.818Z,0.00
2022-09-14T02:00:38.991Z,0.00
2022-09-14T02:01:39.089Z,0.00
2022-09-14T02:02:39.293Z,0.00
2022-09-14T02:03:38.802Z,0.00
2022-09-14T02:04:39.006Z,0.00
2022-09-14T02:05:38.772Z,0.00
2022-09-14T02:06:38.733Z,0.00
2022-09-14T02:07:38.931Z,0.00
2022-09-14T02:08:41.758Z,0.00
2022-09-14T02:09:38.973Z,0.00
2022-09-14T02:10:38.712Z,0.00
2022-09-14T02:11:38.712Z,0.00
2022-09-14T02:12:41.693Z,0.00
2022-09-14T02:13:38.790Z,0.00
2022-09-14T02:14:41.701Z,0.00
2022-09-14T02:15:38.904Z,0.00
2022-09-14T02:16:45.877Z,0.00
2022-09-14T02:17:38.867Z,0.00
2022-09-14T02:18:38.875Z,0.00
2022-09-14T02:19:41.855Z,0.00
2022-09-14T02:20:39.698Z,0.00
2022-09-14T02:21:59.844Z,0.00
2022-09-14T02:22:38.877Z,0.00
2022-09-14T02:23:38.544Z,0.00
2022-09-14T02:24:38.516Z,0.00
2022-09-14T02:25:40.057Z,0.00
2022-09-14T02:27:00.818Z,0.00
2022-09-14T02:27:38.549Z,0.00
2022-09-14T02:28:38.717Z,0.00
2022-09-14T02:29:38.747Z,0.00
2022-09-14T02:30:38.804Z,0.00
2022-09-14T02:31:38.623Z,0.00
2022-09-14T02:32:54.387Z,0.00
2022-09-14T02:33:42.472Z,0.00
2022-09-14T02:34:59.594Z,0.00
2022-09-14T02:35:41.559Z,0.00
2022-09-14T02:36:38.402Z,0.00
2022-09-14T02:37:39.398Z,0.00
2022-09-14T02:38:43.820Z,0.00
2022-09-14T02:39:45.641Z,0.00
2022-09-14T02:40:44.258Z,0.00
2022-09-14T02:41:38.581Z,0.00
2022-09-14T02:42:38.335Z,0.00
2022-09-14T02:43:38.359Z,0.00
2022-09-14T02:44:41.331Z,0.00
2022-09-14T02:45:45.442Z,0.00
2022-09-14T02:46:38.369Z,0.00
2022-09-14T02:47:38.532Z,0.00
2022-09-14T02:48:38.534Z,0.00
2022-09-14T02:49:38.258Z,0.00
2022-09-14T02:50:39.292Z,0.00
2022-09-14T02:51:38.275Z,0.00
2022-09-14T02:52:39.513Z,0.00
2022-09-14T02:53:41.492Z,0.00
2022-09-14T02:54:38.483Z,0.00
2022-09-14T02:55:59.232Z,0.00
2022-09-14T02:56:41.242Z,0.00
2022-09-14T02:57:39.182Z,0.00
2022-09-14T02:58:59.433Z,0.00
2022-09-14T02:59:59.157Z,0.00
2022-09-14T03:00:38.180Z,0.00
2022-09-14T03:01:38.150Z,0.00
2022-09-14T03:02:39.134Z,0.00
2022-09-14T03:03:39.153Z,0.00
2022-09-14T03:04:38.123Z,0.00
2022-09-14T03:05:38.332Z,0.00
2022-09-14T03:07:00.096Z,0.00
2022-09-14T03:07:45.573Z,0.00
2022-09-14T03:08:38.300Z,0.00
2022-09-14T03:09:38.100Z,0.00
2022-09-14T03:10:41.101Z,0.00
2022-09-14T03:11:41.298Z,0.00
2022-09-14T03:12:41.045Z,0.00
2022-09-14T03:13:39.271Z,0.00
2022-09-14T03:14:38.026Z,0.00
2022-09-14T03:15:37.974Z,0.00
2022-09-14T03:16:38.261Z,0.00
2022-09-14T03:17:37.946Z,0.00
2022-09-14T03:18:38.007Z,0.00
2022-09-14T03:19:38.193Z,0.00
2022-09-14T03:20:37.978Z,0.00
2022-09-14T03:21:38.929Z,0.00
2022-09-14T03:22:41.191Z,0.00
2022-09-14T03:23:37.899Z,0.00
2022-09-14T03:24:38.897Z,0.00
2022-09-14T03:25:37.907Z,0.00
2022-09-14T03:26:38.129Z,0.00
2022-09-14T03:27:38.899Z,0.00
2022-09-14T03:28:39.106Z,0.00
2022-09-14T03:29:37.850Z,0.00
2022-09-14T03:30:40.877Z,0.00
2022-09-14T03:31:37.891Z,0.00
2022-09-14T03:32:37.797Z,0.00
2022-09-14T03:33:37.794Z,0.00
2022-09-14T03:34:45.289Z,0.00
2022-09-14T03:35:38.791Z,0.00
2022-09-14T03:36:38.011Z,0.00
2022-09-14T03:37:40.800Z,0.00
2022-09-14T03:38:38.748Z,0.00
2022-09-14T03:39:44.869Z,0.00
2022-09-14T03:40:40.733Z,0.00
2022-09-14T03:41:37.972Z,0.00
2022-09-14T03:42:37.933Z,0.00
2022-09-14T03:43:38.960Z,0.00
2022-09-14T03:44:40.699Z,0.00
2022-09-14T03:45:44.962Z,0.00
2022-09-14T03:46:37.713Z,0.00
2022-09-14T03:47:40.900Z,0.00
2022-09-14T03:48:37.642Z,0.00
2022-09-14T03:49:37.850Z,0.00
2022-09-14T03:50:37.620Z,0.00
2022-09-14T03:51:37.615Z,0.00
2022-09-14T03:52:37.844Z,0.00
2022-09-14T03:53:37.831Z,0.00
2022-09-14T03:54:37.585Z,0.00
2022-09-14T03:55:38.581Z,0.00
2022-09-14T03:56:37.784Z,0.00
2022-09-14T03:57:37.785Z,0.00
2022-09-14T03:58:37.598Z,0.00
2022-09-14T03:59:41.747Z,0.00
2022-09-14T04:00:38.506Z,0.00
2022-09-14T04:01:37.745Z,0.00
2022-09-14T04:02:38.799Z,0.00
2022-09-14T04:03:37.503Z,0.00
2022-09-14T04:04:37.460Z,0.00
2022-09-14T04:05:38.727Z,0.00
2022-09-14T04:06:38.485Z,0.00
2022-09-14T04:07:38.666Z,0.00
2022-09-14T04:08:44.798Z,0.00
2022-09-14T04:09:37.677Z,0.00
2022-09-14T04:10:38.641Z,0.00
2022-09-14T04:11:37.637Z,0.00
2022-09-14T04:12:37.626Z,0.00
2022-09-14T04:13:37.365Z,0.00
2022-09-14T04:14:37.456Z,0.00
2022-09-14T04:15:40.429Z,0.00
2022-09-14T04:16:38.615Z,0.00
2022-09-14T04:17:38.357Z,0.00
2022-09-14T04:18:37.344Z,0.00
2022-09-14T04:19:37.327Z,0.00
2022-09-14T04:20:37.315Z,0.00
2022-09-14T04:21:40.544Z,0.00
2022-09-14T04:22:40.555Z,0.00
2022-09-14T04:24:03.032Z,0.00
2022-09-14T04:24:38.537Z,0.00
2022-09-14T04:25:37.248Z,0.00
2022-09-14T04:26:37.241Z,0.00
2022-09-14T04:27:37.218Z,0.00
2022-09-14T04:28:38.243Z,0.00
2022-09-14T04:29:37.228Z,0.00
2022-09-14T04:30:37.223Z,0.00
2022-09-14T04:31:38.251Z,0.00
2022-09-14T04:32:40.214Z,0.00
2022-09-14T04:33:37.177Z,0.00
2022-09-14T04:34:44.341Z,0.00
2022-09-14T04:35:37.400Z,0.00
2022-09-14T04:36:40.180Z,0.00
2022-09-14T04:37:37.130Z,0.00
2022-09-14T04:38:37.109Z,0.00
2022-09-14T04:39:37.322Z,0.00
2022-09-14T04:40:37.105Z,0.00
2022-09-14T04:41:37.335Z,0.00
2022-09-14T04:42:37.288Z,0.00
2022-09-14T04:43:40.075Z,0.00
2022-09-14T04:44:37.047Z,0.00
2022-09-14T04:45:37.035Z,0.00
2022-09-14T04:46:37.546Z,0.00
2022-09-14T04:47:37.018Z,0.00
2022-09-14T04:48:44.274Z,0.00
2022-09-14T04:49:36.998Z,0.00
2022-09-14T04:50:36.977Z,0.00
2022-09-14T04:51:37.016Z,0.00
2022-09-14T04:52:36.960Z,0.00
2022-09-14T04:53:37.982Z,0.00
2022-09-14T04:54:52.405Z,0.00
2022-09-14T04:55:39.965Z,0.00
2022-09-14T04:56:37.200Z,0.00
2022-09-14T04:57:37.153Z,0.00
2022-09-14T04:58:40.182Z,0.00
2022-09-14T04:59:38.158Z,0.00
2022-09-14T05:00:37.880Z,0.00
2022-09-14T05:01:37.261Z,0.00
2022-09-14T05:02:36.917Z,0.00
2022-09-14T05:03:36.847Z,0.00
2022-09-14T05:04:36.832Z,0.00
2022-09-14T05:05:36.845Z,0.00
2022-09-14T05:06:36.805Z,0.00
2022-09-14T05:07:36.818Z,0.00
2022-09-14T05:08:37.035Z,0.00
2022-09-14T05:09:37.802Z,0.00
2022-09-14T05:10:36.984Z,0.00
2022-09-14T05:11:40.017Z,0.00
2022-09-14T05:12:37.045Z,0.00
2022-09-14T05:13:37.746Z,0.00
2022-09-14T05:14:37.018Z,0.00
2022-09-14T05:15:40.012Z,0.00
2022-09-14T05:16:36.961Z,0.00
2022-09-14T05:17:36.696Z,0.00
2022-09-14T05:18:36.686Z,0.00
2022-09-14T05:19:36.682Z,0.00
2022-09-14T05:20:39.067Z,0.00
2022-09-14T05:21:43.879Z,0.00
2022-09-14T05:22:36.941Z,0.00
2022-09-14T05:23:36.651Z,0.00
2022-09-14T05:24:36.628Z,0.00
2022-09-14T05:25:36.628Z,0.00
2022-09-14T05:27:00.594Z,0.00
2022-09-14T05:27:36.590Z,0.00
2022-09-14T05:28:36.852Z,0.00
2022-09-14T05:29:39.590Z,0.00
2022-09-14T05:30:39.592Z,0.00
2022-09-14T05:31:36.680Z,0.00
2022-09-14T05:32:36.564Z,0.00
2022-09-14T05:33:36.540Z,0.00
2022-09-14T05:34:39.570Z,0.00
2022-09-14T05:35:43.856Z,0.00
2022-09-14T05:36:36.729Z,0.00
2022-09-14T05:37:36.771Z,0.00
2022-09-14T05:38:39.743Z,0.00
2022-09-14T05:39:37.689Z,0.00
2022-09-14T05:40:36.708Z,0.00
2022-09-14T05:41:39.482Z,0.00
2022-09-14T05:42:37.668Z,0.00
2022-09-14T05:43:36.437Z,0.00
2022-09-14T05:44:36.452Z,0.00
2022-09-14T05:45:36.414Z,0.00
2022-09-14T05:46:36.496Z,0.00
2022-09-14T05:47:39.262Z,0.00
2022-09-14T05:48:36.377Z,0.00
2022-09-14T05:49:37.367Z,5.62
2022-09-14T05:50:43.659Z,5.62
2022-09-14T05:51:36.333Z,5.62
2022-09-14T05:52:36.373Z,5.62
2022-09-14T05:53:37.580Z,5.62
2022-09-14T05:54:36.305Z,5.62
2022-09-14T05:55:36.297Z,5.62
2022-09-14T05:56:37.511Z,5.62
2022-09-14T05:57:36.556Z,5.62
2022-09-14T05:58:36.263Z,5.62
2022-09-14T05:59:36.268Z,11.25
2022-09-14T06:00:43.434Z,11.25
2022-09-14T06:01:36.296Z,11.25
2022-09-14T06:02:36.504Z,11.25
2022-09-14T06:03:36.225Z,11.25
2022-09-14T06:04:36.308Z,11.25
2022-09-14T06:05:36.243Z,11.25
2022-09-14T06:06:36.181Z,16.88
2022-09-14T06:07:36.198Z,16.88
2022-09-14T06:08:36.148Z,16.88
2022-09-14T06:09:36.137Z,22.50
2022-09-14T06:10:36.182Z,22.50
2022-09-14T06:11:36.173Z,22.50
2022-09-14T06:12:36.116Z,16.88
2022-09-14T06:13:36.117Z,16.88
2022-09-14T06:14:36.095Z,16.88
2022-09-14T06:15:36.079Z,16.88
2022-09-14T06:16:36.095Z,16.88
2022-09-14T06:17:36.090Z,16.88
2022-09-14T06:18:36.048Z,16.88
2022-09-14T06:19:36.087Z,11.25
2022-09-14T06:20:36.051Z,11.25
2022-09-14T06:21:36.027Z,11.25
2022-09-14T06:22:36.004Z,11.25
2022-09-14T06:23:36.060Z,11.25
2022-09-14T06:24:35.983Z,11.25
2022-09-14T06:25:35.989Z,11.25
2022-09-14T06:26:36.001Z,11.25
2022-09-14T06:27:35.963Z,5.62
2022-09-14T06:28:35.938Z,5.62
2022-09-14T06:29:35.953Z,5.62
2022-09-14T06:30:35.917Z,5.62
2022-09-14T06:31:35.930Z,5.62
2022-09-14T06:32:35.901Z,11.25
2022-09-14T06:33:35.894Z,11.25
2022-09-14T06:34:35.932Z,11.25
2022-09-14T06:35:35.865Z,11.25
2022-09-14T06:36:35.859Z,11.25
2022-09-14T06:37:35.883Z,11.25
2022-09-14T06:38:35.861Z,11.25
2022-09-14T06:39:35.844Z,11.25
2022-09-14T06:40:35.837Z,11.25
2022-09-14T06:41:35.858Z,16.88
2022-09-14T06:42:35.822Z,22.50
2022-09-14T06:43:35.803Z,22.50
2022-09-14T06:44:35.789Z,28.12
2022-09-14T06:45:35.767Z,33.75
2022-09-14T06:46:35.765Z,33.75
2022-09-14T06:47:35.780Z,33.75
2022-09-14T06:48:36.714Z,28.12
2022-09-14T06:49:35.734Z,33.75
2022-09-14T06:50:35.728Z,33.75
2022-09-14T06:51:35.716Z,33.75
2022-09-14T06:52:35.703Z,33.75
2022-09-14T06:53:35.694Z,39.38
2022-09-14T06:54:35.696Z,39.38
2022-09-14T06:55:35.660Z,39.38
2022-09-14T06:56:35.638Z,45.00
2022-09-14T06:57:35.646Z,45.00
2022-09-14T06:58:35.659Z,50.62
2022-09-14T06:59:35.613Z,56.25
2022-09-14T07:00:35.623Z,67.50
2022-09-14T07:01:35.586Z,78.75
2022-09-14T07:02:35.648Z,84.38
2022-09-14T07:03:35.587Z,90.00
2022-09-14T07:04:35.600Z,95.62
2022-09-14T07:05:35.566Z,90.00
2022-09-14T07:06:35.542Z,78.75
2022-09-14T07:07:35.550Z,73.12
2022-09-14T07:08:35.534Z,67.50
2022-09-14T07:09:35.513Z,61.88
2022-09-14T07:10:35.506Z,61.88
2022-09-14T07:11:35.495Z,61.88
2022-09-14T07:12:35.482Z,67.50
2022-09-14T07:13:38.216Z,73.12
2022-09-14T07:14:35.487Z,84.38
2022-09-14T07:15:35.563Z,84.38
2022-09-14T07:16:35.436Z,84.38
2022-09-14T07:17:35.432Z,78.75
2022-09-14T07:18:35.411Z,67.50
2022-09-14T07:19:35.417Z,61.88
2022-09-14T07:20:35.414Z,67.50
2022-09-14T07:21:35.482Z,78.75
2022-09-14T07:22:35.380Z,84.38
2022-09-14T07:23:35.415Z,84.38
2022-09-14T07:24:35.409Z,84.38
2022-09-14T07:25:35.328Z,106.88
2022-09-14T07:26:35.332Z,135.00
2022-09-14T07:27:35.352Z,123.75
2022-09-14T07:28:35.331Z,146.25
2022-09-14T07:29:35.343Z,163.12
2022-09-14T07:30:35.385Z,168.75
2022-09-14T07:31:35.274Z,140.62
2022-09-14T07:32:35.279Z,129.38
2022-09-14T07:33:35.275Z,118.12
2022-09-14T07:34:35.291Z,106.88
2022-09-14T07:35:35.252Z,106.88
2022-09-14T07:36:35.575Z,106.88
2022-09-14T07:37:35.215Z,95.62
2022-09-14T07:38:51.782Z,90.00
2022-09-14T07:39:36.235Z,101.25
2022-09-14T07:40:35.194Z,112.50
2022-09-14T07:41:35.184Z,129.38
2022-09-14T07:42:35.184Z,146.25
2022-09-14T07:43:35.144Z,151.88
2022-09-14T07:44:35.163Z,151.88
2022-09-14T07:45:35.229Z,157.50
2022-09-14T07:46:35.118Z,146.25
2022-09-14T07:47:35.801Z,163.12
2022-09-14T07:48:35.101Z,185.62
2022-09-14T07:49:35.092Z,202.50
2022-09-14T07:50:35.097Z,168.75
2022-09-14T07:51:35.051Z,140.62
2022-09-14T07:52:38.626Z,140.62
2022-09-14T07:53:35.036Z,151.88
2022-09-14T07:54:35.027Z,168.75
2022-09-14T07:55:35.044Z,157.50
2022-09-14T07:56:35.180Z,140.62
2022-09-14T07:57:54.978Z,123.75
2022-09-14T07:58:36.003Z,118.12
2022-09-14T07:59:36.943Z,118.12
2022-09-14T08:00:34.999Z,118.12
2022-09-14T08:01:35.025Z,112.50
2022-09-14T08:02:35.037Z,101.25
2022-09-14T08:03:34.944Z,95.62
2022-09-14T08:04:34.930Z,90.00
2022-09-14T08:05:34.929Z,84.38
2022-09-14T08:06:34.992Z,84.38
2022-09-14T08:07:34.903Z,84.38
2022-09-14T08:08:34.874Z,84.38
2022-09-14T08:09:34.909Z,84.38
2022-09-14T08:10:34.873Z,84.38
2022-09-14T08:11:34.847Z,84.38
2022-09-14T08:12:34.845Z,84.38
2022-09-14T08:13:34.864Z,73.12
2022-09-14T08:14:34.815Z,61.88
2022-09-14T08:15:34.811Z,56.25
2022-09-14T08:16:34.948Z,56.25
2022-09-14T08:17:34.812Z,56.25
2022-09-14T08:18:34.793Z,67.50
2022-09-14T08:19:34.776Z,61.88
2022-09-14T08:20:34.748Z,56.25
2022-09-14T08:21:34.765Z,56.25
2022-09-14T08:22:34.760Z,67.50
2022-09-14T08:23:34.735Z,73.12
2022-09-14T08:24:34.732Z,61.88
2022-09-14T08:25:34.703Z,56.25
2022-09-14T08:26:34.703Z,73.12
2022-09-14T08:27:34.715Z,90.00
2022-09-14T08:28:34.693Z,101.25
2022-09-14T08:29:34.671Z,106.88
2022-09-14T08:30:34.671Z,112.50
2022-09-14T08:31:34.693Z,112.50
2022-09-14T08:32:34.660Z,106.88
2022-09-14T08:33:34.646Z,118.12
2022-09-14T08:34:34.619Z,135.00
2022-09-14T08:35:56.414Z,140.62
2022-09-14T08:36:35.598Z,140.62
2022-09-14T08:37:34.627Z,140.62
2022-09-14T08:38:34.593Z,168.75
2022-09-14T08:39:34.581Z,163.12
2022-09-14T08:40:34.584Z,151.88
2022-09-14T08:41:34.541Z,129.38
2022-09-14T08:42:34.532Z,118.12
2022-09-14T08:43:34.545Z,118.12
2022-09-14T08:44:34.514Z,118.12
2022-09-14T08:45:34.593Z,118.12
2022-09-14T08:46:34.498Z,118.12
2022-09-14T08:47:34.471Z,112.50
2022-09-14T08:48:34.480Z,106.88
2022-09-14T08:49:34.496Z,101.25
2022-09-14T08:50:38.618Z,101.25
2022-09-14T08:51:34.436Z,101.25
2022-09-14T08:52:34.428Z,101.25
2022-09-14T08:53:34.453Z,95.62
2022-09-14T08:54:34.406Z,90.00
2022-09-14T08:55:34.379Z,84.38
2022-09-14T08:56:34.390Z,95.62
2022-09-14T08:57:34.390Z,112.50
2022-09-14T08:58:40.620Z,129.38
2022-09-14T08:59:35.375Z,140.62
2022-09-14T09:00:34.429Z,174.38
2022-09-14T09:01:34.345Z,196.88
2022-09-14T09:02:34.318Z,196.88
2022-09-14T09:03:34.373Z,191.25
2022-09-14T09:04:34.350Z,180.00
2022-09-14T09:05:34.311Z,168.75
2022-09-14T09:06:34.291Z,163.12
2022-09-14T09:07:34.266Z,146.25
2022-09-14T09:08:34.264Z,140.62
2022-09-14T09:09:34.294Z,135.00
2022-09-14T09:10:34.225Z,135.00
2022-09-14T09:11:34.224Z,157.50
2022-09-14T09:12:34.239Z,196.88
2022-09-14T09:13:34.237Z,196.88
2022-09-14T09:14:34.212Z,191.25
2022-09-14T09:15:34.211Z,174.38
2022-09-14T09:16:34.224Z,157.50
2022-09-14T09:17:34.155Z,135.00
2022-09-14T09:18:34.177Z,135.00
2022-09-14T09:19:34.141Z,196.88
2022-09-14T09:20:34.127Z,286.88
2022-09-14T09:21:34.141Z,286.88
2022-09-14T09:22:34.108Z,241.88
2022-09-14T09:23:34.110Z,202.50
2022-09-14T09:24:37.098Z,196.88
2022-09-14T09:25:34.076Z,225.00
2022-09-14T09:26:34.088Z,236.25
2022-09-14T09:27:34.062Z,219.38
2022-09-14T09:28:34.055Z,230.62
2022-09-14T09:29:34.107Z,208.12
2022-09-14T09:30:34.007Z,180.00
2022-09-14T09:31:34.126Z,180.00
2022-09-14T09:32:34.008Z,180.00
2022-09-14T09:33:33.999Z,151.88
2022-09-14T09:34:33.968Z,146.25
2022-09-14T09:35:33.978Z,118.12
2022-09-14T09:36:33.996Z,129.38
2022-09-14T09:37:33.940Z,106.88
2022-09-14T09:38:33.946Z,112.50
2022-09-14T09:39:33.932Z,151.88
2022-09-14T09:40:34.084Z,168.75
2022-09-14T09:41:33.923Z,196.88
2022-09-14T09:42:33.931Z,230.62
2022-09-14T09:43:49.018Z,213.75
2022-09-14T09:44:34.926Z,253.12
2022-09-14T09:45:33.846Z,202.50
2022-09-14T09:46:33.925Z,208.12
2022-09-14T09:47:33.856Z,247.50
2022-09-14T09:48:33.851Z,253.12
2022-09-14T09:49:33.829Z,208.12
2022-09-14T09:50:33.816Z,202.50
2022-09-14T09:51:33.815Z,191.25
2022-09-14T09:52:33.853Z,208.12
2022-09-14T09:53:33.780Z,286.88
2022-09-14T09:54:33.776Z,236.25
2022-09-14T09:55:33.764Z,230.62
2022-09-14T09:56:33.751Z,270.00
2022-09-14T09:57:33.760Z,241.88
2022-09-14T09:58:33.725Z,202.50
2022-09-14T09:59:33.738Z,191.25
2022-09-14T10:00:33.732Z,168.75
2022-09-14T10:01:33.828Z,129.38
2022-09-14T10:02:33.769Z,106.88
2022-09-14T10:03:33.686Z,95.62
2022-09-14T10:04:33.658Z,101.25
2022-09-14T10:05:33.687Z,123.75
2022-09-14T10:06:33.657Z,163.12
2022-09-14T10:07:33.643Z,157.50
2022-09-14T10:08:33.637Z,118.12
2022-09-14T10:09:33.691Z,118.12
2022-09-14T10:10:33.703Z,90.00
2022-09-14T10:11:33.589Z,90.00
2022-09-14T10:12:33.581Z,84.38
2022-09-14T10:13:38.132Z,78.75
2022-09-14T10:14:33.567Z,67.50
2022-09-14T10:15:33.536Z,78.75
2022-09-14T10:16:33.664Z,73.12
2022-09-14T10:17:33.518Z,67.50
2022-09-14T10:18:33.562Z,67.50
2022-09-14T10:19:33.523Z,78.75
2022-09-14T10:20:33.507Z,84.38
2022-09-14T10:21:33.492Z,84.38
2022-09-14T10:22:33.495Z,67.50
2022-09-14T10:23:33.489Z,61.88
2022-09-14T10:24:33.468Z,61.88
2022-09-14T10:25:33.472Z,61.88
2022-09-14T10:26:33.446Z,61.88
2022-09-14T10:27:37.729Z,67.50
2022-09-14T10:28:34.442Z,61.88
2022-09-14T10:29:33.408Z,56.25
2022-09-14T10:30:33.394Z,56.25
2022-09-14T10:31:33.404Z,56.25
2022-09-14T10:32:33.374Z,56.25
2022-09-14T10:33:33.372Z,50.62
2022-09-14T10:34:33.371Z,45.00
2022-09-14T10:35:33.341Z,50.62
2022-09-14T10:36:33.344Z,56.25
2022-09-14T10:37:34.331Z,67.50
2022-09-14T10:38:33.546Z,67.50
2022-09-14T10:39:33.353Z,67.50
2022-09-14T10:40:34.369Z,67.50
2022-09-14T10:41:33.502Z,78.75
2022-09-14T10:42:33.277Z,84.38
2022-09-14T10:43:33.485Z,84.38
2022-09-14T10:44:33.492Z,101.25
2022-09-14T10:45:33.235Z,129.38
2022-09-14T10:46:33.266Z,101.25
2022-09-14T10:47:33.208Z,135.00
2022-09-14T10:48:33.205Z,163.12
2022-09-14T10:49:33.214Z,196.88
2022-09-14T10:50:33.205Z,180.00
2022-09-14T10:51:33.180Z,196.88
2022-09-14T10:52:33.160Z,208.12
2022-09-14T10:53:33.172Z,219.38
2022-09-14T10:54:33.144Z,264.38
2022-09-14T10:55:33.132Z,281.25
2022-09-14T10:56:33.118Z,275.62
2022-09-14T10:57:33.103Z,270.00
2022-09-14T10:58:33.103Z,258.75
2022-09-14T10:59:33.090Z,258.75
2022-09-14T11:00:33.102Z,241.88
2022-09-14T11:01:40.234Z,241.88
2022-09-14T11:02:33.205Z,208.12
2022-09-14T11:03:36.084Z,225.00
2022-09-14T11:04:33.262Z,247.50
2022-09-14T11:05:33.294Z,258.75
2022-09-14T11:06:36.272Z,264.38
2022-09-14T11:07:33.241Z,275.62
2022-09-14T11:08:32.992Z,281.25
2022-09-14T11:09:32.985Z,298.12
2022-09-14T11:10:33.222Z,331.88
2022-09-14T11:11:32.968Z,309.38
2022-09-14T11:12:33.248Z,309.38
2022-09-14T11:13:32.984Z,320.62
2022-09-14T11:14:32.922Z,275.62
2022-09-14T11:15:33.003Z,208.12
2022-09-14T11:16:32.930Z,241.88
2022-09-14T11:17:32.913Z,247.50
2022-09-14T11:18:32.890Z,253.12
2022-09-14T11:19:32.878Z,196.88
2022-09-14T11:20:32.878Z,146.25
2022-09-14T11:21:33.717Z,123.75
2022-09-14T11:22:32.863Z,106.88
2022-09-14T11:23:32.887Z,118.12
2022-09-14T11:24:32.817Z,123.75
2022-09-14T11:25:32.818Z,101.25
2022-09-14T11:26:32.825Z,101.25
2022-09-14T11:27:32.823Z,101.25
2022-09-14T11:28:32.783Z,90.00
2022-09-14T11:29:32.770Z,73.12
2022-09-14T11:30:33.786Z,95.62
2022-09-14T11:31:32.833Z,95.62
2022-09-14T11:32:32.748Z,90.00
2022-09-14T11:33:32.746Z,90.00
2022-09-14T11:34:32.769Z,90.00
2022-09-14T11:35:32.710Z,90.00
2022-09-14T11:36:32.726Z,106.88
2022-09-14T11:37:32.736Z,106.88
2022-09-14T11:38:32.673Z,101.25
2022-09-14T11:39:32.682Z,84.38
2022-09-14T11:40:32.815Z,78.75
2022-09-14T11:41:32.629Z,73.12
2022-09-14T11:42:33.629Z,67.50
2022-09-14T11:43:32.640Z,67.50
2022-09-14T11:44:32.613Z,78.75
2022-09-14T11:45:32.674Z,95.62
2022-09-14T11:46:32.659Z,90.00
2022-09-14T11:47:32.615Z,73.12
2022-09-14T11:48:47.985Z,84.38
2022-09-14T11:49:33.552Z,90.00
2022-09-14T11:50:32.540Z,78.75
2022-09-14T11:51:32.548Z,90.00
2022-09-14T11:52:32.541Z,95.62
2022-09-14T11:53:32.540Z,101.25
2022-09-14T11:54:32.507Z,106.88
2022-09-14T11:55:32.501Z,118.12
2022-09-14T11:56:32.481Z,106.88
2022-09-14T11:57:32.550Z,118.12
2022-09-14T11:58:32.484Z,118.12
2022-09-14T11:59:32.454Z,123.75
2022-09-14T12:00:32.433Z,123.75
2022-09-14T12:01:32.435Z,106.88
2022-09-14T12:02:32.535Z,90.00
2022-09-14T12:03:32.505Z,84.38
2022-09-14T12:04:32.408Z,84.38
2022-09-14T12:05:32.414Z,101.25
2022-09-14T12:06:32.375Z,101.25
2022-09-14T12:07:32.401Z,101.25
2022-09-14T12:08:32.352Z,95.62
2022-09-14T12:09:32.384Z,84.38
2022-09-14T12:10:32.344Z,78.75
2022-09-14T12:11:32.328Z,73.12
2022-09-14T12:12:32.304Z,67.50
2022-09-14T12:13:32.308Z,61.88
2022-09-14T12:14:32.300Z,67.50
2022-09-14T12:15:32.427Z,67.50
2022-09-14T12:16:34.603Z,67.50
2022-09-14T12:17:40.817Z,78.75
2022-09-14T12:18:33.255Z,84.38
2022-09-14T12:19:32.285Z,78.75
2022-09-14T12:20:32.228Z,67.50
2022-09-14T12:21:32.237Z,73.12
2022-09-14T12:22:32.234Z,84.38
2022-09-14T12:23:32.207Z,78.75
2022-09-14T12:24:32.212Z,95.62
2022-09-14T12:25:32.229Z,90.00
2022-09-14T12:26:32.176Z,84.38
2022-09-14T12:27:32.177Z,95.62
2022-09-14T12:28:32.143Z,90.00
2022-09-14T12:29:32.143Z,78.75
2022-09-14T12:30:34.081Z,90.00
2022-09-14T12:31:33.268Z,95.62
2022-09-14T12:32:32.132Z,90.00
2022-09-14T12:33:32.112Z,67.50
2022-09-14T12:34:32.163Z,67.50
2022-09-14T12:35:32.100Z,73.12
2022-09-14T12:36:32.102Z,73.12
2022-09-14T12:37:33.033Z,73.12
2022-09-14T12:38:32.050Z,73.12
2022-09-14T12:39:32.042Z,78.75
2022-09-14T12:40:32.080Z,84.38
2022-09-14T12:41:32.054Z,84.38
2022-09-14T12:42:32.034Z,78.75
2022-09-14T12:43:32.001Z,67.50
2022-09-14T12:44:31.984Z,73.12
2022-09-14T12:45:31.968Z,73.12
2022-09-14T12:46:32.244Z,67.50
2022-09-14T12:47:31.959Z,61.88
2022-09-14T12:48:31.937Z,56.25
2022-09-14T12:49:31.960Z,50.62
2022-09-14T12:50:31.918Z,50.62
2022-09-14T12:51:31.974Z,45.00
2022-09-14T12:52:31.893Z,45.00
2022-09-14T12:53:31.905Z,39.38
2022-09-14T12:54:31.870Z,39.38
2022-09-14T12:55:31.890Z,39.38
2022-09-14T12:56:31.880Z,45.00
2022-09-14T12:57:31.834Z,45.00
2022-09-14T12:58:31.846Z,50.62